Time;durP1;ratioP1;P1;durP2;ratioP2;P2;SDS_P1;SDS_P2;PMS_P1;PMS_P2;Temp;Humidity;BMP_temperature;BMP_pressure;BME280_temperature;BME280_humidity;BME280_pressure;Samples;Min_cycle;Max_cycle;Signal;HPM_P1;HPM_P2
2021/11/25 00:01:59;;;;;;;17.63;9.13;;;;;;;4.77;100.00;100854.69;7401320;19;20455;-44
2021/11/25 00:04:28;;;;;;;22.10;10.97;;;;;;;4.79;100.00;100858.22;7391972;19;20396;-46
2021/11/25 00:07:00;;;;;;;18.97;10.37;;;;;;;4.73;100.00;100846.81;7395552;19;20423;-46
2021/11/25 00:09:30;;;;;;;16.60;9.20;;;;;;;4.73;100.00;100839.13;7393672;19;20387;-49
2021/11/25 00:11:59;;;;;;;19.50;10.03;;;;;;;4.77;100.00;100834.25;7397385;19;20467;-47
2021/11/25 00:14:29;;;;;;;17.93;9.70;;;;;;;4.84;100.00;100828.75;7393902;19;20467;-46
2021/11/25 00:16:58;;;;;;;17.60;9.63;;;;;;;4.81;100.00;100833.63;7395636;19;20475;-52
2021/11/25 00:19:28;;;;;;;16.70;9.80;;;;;;;4.80;100.00;100830.22;7394528;19;20379;-43
2021/11/25 00:22:00;;;;;;;17.47;9.77;;;;;;;4.78;100.00;100830.91;7401692;19;20467;-50
2021/11/25 00:24:30;;;;;;;18.30;9.80;;;;;;;4.81;100.00;100815.75;7391914;19;20386;-44
2021/11/25 00:26:59;;;;;;;15.83;8.93;;;;;;;4.77;100.00;100809.53;7394647;19;20423;-45
2021/11/25 00:29:29;;;;;;;17.40;10.00;;;;;;;4.87;100.00;100811.03;7393990;19;20395;-43
2021/11/25 00:31:59;;;;;;;16.60;9.63;;;;;;;4.87;100.00;100808.47;7403607;19;20392;-46
2021/11/25 00:34:28;;;;;;;20.40;10.70;;;;;;;4.82;100.00;100807.31;7400850;19;20411;-44
2021/11/25 00:37:00;;;;;;;16.77;10.43;;;;;;;4.80;100.00;100802.09;7401606;19;20489;-45
2021/11/25 00:39:30;;;;;;;18.13;10.20;;;;;;;4.83;100.00;100798.84;7399883;19;20402;-43
2021/11/25 00:41:59;;;;;;;16.30;9.53;;;;;;;4.76;100.00;100804.34;7404349;19;20380;-48
2021/11/25 00:44:29;;;;;;;19.53;10.63;;;;;;;4.78;100.00;100792.56;7396832;19;20453;-46
2021/11/25 00:46:59;;;;;;;18.43;10.37;;;;;;;4.79;100.00;100794.31;7401456;19;20407;-44
2021/11/25 00:49:28;;;;;;;17.67;9.83;;;;;;;4.80;100.00;100798.63;7398755;19;20390;-48
2021/11/25 00:52:00;;;;;;;19.80;9.70;;;;;;;4.79;100.00;100784.09;7403197;19;20387;-45
2021/11/25 00:54:30;;;;;;;18.67;10.60;;;;;;;4.75;100.00;100784.66;7398465;19;20402;-43
2021/11/25 00:56:59;;;;;;;17.73;11.13;;;;;;;4.73;100.00;100780.34;7401493;19;20739;-48
2021/11/25 00:59:29;;;;;;;17.60;9.70;;;;;;;4.72;100.00;100768.34;7400577;19;20400;-42
2021/11/25 01:01:58;;;;;;;17.90;9.63;;;;;;;4.68;100.00;100766.38;7403004;19;20459;-44
2021/11/25 01:04:28;;;;;;;19.97;10.80;;;;;;;4.73;100.00;100770.13;7399312;19;20415;-43
2021/11/25 01:07:00;;;;;;;19.03;9.73;;;;;;;4.77;100.00;100766.09;7400514;19;20491;-46
2021/11/25 01:09:30;;;;;;;19.40;10.40;;;;;;;4.67;100.00;100769.72;7401287;19;20399;-50
2021/11/25 01:12:03;;;;;;;17.43;9.80;;;;;;;4.70;100.00;100769.94;7403048;19;20399;-52
2021/11/25 01:14:34;;;;;;;19.93;9.97;;;;;;;4.71;100.00;100776.81;7397973;19;20382;-50
2021/11/25 01:17:05;;;;;;;20.60;11.50;;;;;;;4.70;100.00;100777.59;7401275;19;20412;-44
2021/11/25 01:19:35;;;;;;;17.90;10.10;;;;;;;4.71;100.00;100776.81;7397616;19;20394;-45
2021/11/25 01:22:07;;;;;;;21.10;9.70;;;;;;;4.70;100.00;100769.94;7407198;19;20392;-48
2021/11/25 01:24:40;;;;;;;20.47;11.00;;;;;;;4.71;100.00;100766.59;7398942;19;20389;-51
2021/11/25 01:27:10;;;;;;;19.53;11.10;;;;;;;4.72;100.00;100763.25;7400690;19;20877;-48
2021/11/25 01:29:39;;;;;;;21.57;11.33;;;;;;;4.76;100.00;100763.47;7396639;19;20386;-49
2021/11/25 01:32:09;;;;;;;19.83;11.23;;;;;;;4.73;100.00;100757.34;7402882;19;20476;-44
2021/11/25 01:34:39;;;;;;;23.53;11.37;;;;;;;4.77;100.00;100750.75;7398114;19;20469;-45
2021/11/25 01:37:12;;;;;;;23.57;11.27;;;;;;;4.89;100.00;100739.56;7399442;19;20440;-44
2021/11/25 01:39:42;;;;;;;18.23;11.43;;;;;;;4.82;100.00;100751.06;7397099;19;20388;-45
2021/11/25 01:42:11;;;;;;;19.20;10.27;;;;;;;4.71;100.00;100742.69;7402715;19;20408;-47
2021/11/25 01:44:42;;;;;;;18.33;10.10;;;;;;;4.67;100.00;100731.38;7399278;19;20431;-46
2021/11/25 01:47:11;;;;;;;22.13;11.00;;;;;;;4.75;100.00;100736.09;7404412;19;20427;-46
2021/11/25 01:49:41;;;;;;;24.43;11.53;;;;;;;4.77;100.00;100724.31;7398582;19;20419;-45
2021/11/25 01:52:13;;;;;;;25.37;11.57;;;;;;;4.72;100.00;100717.22;7401741;19;20384;-51
2021/11/25 01:54:43;;;;;;;19.07;10.63;;;;;;;4.68;100.00;100717.81;7397825;19;20400;-47
2021/11/25 01:57:13;;;;;;;18.90;11.70;;;;;;;4.79;100.00;100715.06;7399540;19;20437;-44
2021/11/25 01:59:43;;;;;;;21.10;10.37;;;;;;;4.77;100.00;100704.72;7397776;19;20400;-45
2021/11/25 02:02:13;;;;;;;25.03;13.13;;;;;;;4.75;100.00;100705.41;7401556;19;20379;-45
2021/11/25 02:04:43;;;;;;;23.00;12.30;;;;;;;4.81;100.00;100698.16;7395082;19;20671;-44
2021/11/25 02:07:17;;;;;;;20.03;11.40;;;;;;;4.73;100.00;100698.53;7399202;19;20408;-47
2021/11/25 02:09:47;;;;;;;21.63;11.20;;;;;;;4.83;100.00;100696.59;7397124;19;20432;-53
2021/11/25 02:12:16;;;;;;;33.93;16.40;;;;;;;4.85;100.00;100697.56;7401002;19;20828;-46
2021/11/25 02:14:46;;;;;;;21.50;11.80;;;;;;;4.84;100.00;100690.69;7391829;19;20411;-53
2021/11/25 02:17:16;;;;;;;23.40;12.40;;;;;;;4.84;100.00;100688.13;7399371;19;20423;-46
2021/11/25 02:19:46;;;;;;;18.10;10.80;;;;;;;4.88;100.00;100687.56;7396534;19;20411;-43
2021/11/25 02:22:18;;;;;;;22.47;11.97;;;;;;;4.81;100.00;100683.69;7400761;19;20455;-48
2021/11/25 02:24:48;;;;;;;22.47;12.33;;;;;;;4.86;100.00;100678.88;7395719;19;20972;-47
2021/11/25 02:27:20;;;;;;;20.17;11.50;;;;;;;4.77;100.00;100673.19;7398746;19;20503;-45
2021/11/25 02:29:50;;;;;;;29.00;12.77;;;;;;;4.67;100.00;100672.59;7397066;19;20482;-44
2021/11/25 02:32:31;;;;;;;23.10;12.27;;;;;;;4.68;100.00;100670.94;7400546;19;20455;-45
2021/11/25 02:35:01;;;;;;;21.40;11.70;;;;;;;4.68;100.00;100669.25;7396973;19;20486;-44
2021/11/25 02:37:34;;;;;;;21.20;11.13;;;;;;;4.64;100.00;100661.28;7398454;19;20434;-46
2021/11/25 02:40:15;;;;;;;20.80;11.27;;;;;;;4.66;100.00;100660.59;7397167;19;20495;-42
2021/11/25 02:42:45;;;;;;;22.30;11.77;;;;;;;4.68;100.00;100658.16;7399761;19;20662;-45
2021/11/25 02:45:14;;;;;;;22.83;11.90;;;;;;;4.57;100.00;100653.22;7395539;19;20423;-46
2021/11/25 02:47:44;;;;;;;20.70;11.47;;;;;;;4.53;100.00;100648.72;7397938;19;20491;-43
2021/11/25 02:50:13;;;;;;;22.67;12.20;;;;;;;4.58;100.00;100642.22;7396873;19;20809;-48
2021/11/25 02:52:46;;;;;;;23.20;12.67;;;;;;;4.63;100.00;100634.84;7398340;19;20380;-52
2021/11/25 02:55:17;;;;;;;23.40;12.57;;;;;;;4.75;100.00;100633.84;7396835;19;20436;-50
2021/11/25 02:57:47;;;;;;;22.83;11.23;;;;;;;4.65;100.00;100633.28;7398260;19;20491;-50
2021/11/25 03:00:30;;;;;;;20.53;11.10;;;;;;;4.60;100.00;100624.44;7396108;19;20479;-49
2021/11/25 03:03:02;;;;;;;20.90;10.60;;;;;;;4.53;100.00;100622.28;7399231;19;20392;-50
2021/11/25 03:05:32;;;;;;;24.57;12.63;;;;;;;4.58;100.00;100618.34;7393198;19;20466;-43
2021/11/25 03:08:06;;;;;;;23.00;11.67;;;;;;;4.57;100.00;100603.81;7397493;19;20427;-43
2021/11/25 03:10:37;;;;;;;25.13;12.50;;;;;;;4.56;100.00;100596.94;7396725;19;20426;-46
2021/11/25 03:13:09;;;;;;;23.80;13.47;;;;;;;4.57;100.00;100593.56;7399124;19;20448;-43
2021/11/25 03:15:40;;;;;;;23.77;12.70;;;;;;;4.51;100.00;100595.75;7387725;19;20502;-45
2021/11/25 03:18:13;;;;;;;28.93;11.93;;;;;;;4.45;100.00;100594.56;7403440;19;20415;-48
2021/11/25 03:20:45;;;;;;;27.30;12.27;;;;;;;4.49;100.00;100594.75;7397530;19;20449;-48
2021/11/25 03:23:19;;;;;;;24.27;13.33;;;;;;;4.55;100.00;100592.56;7399165;19;20419;-47
2021/11/25 03:25:49;;;;;;;27.23;14.67;;;;;;;4.48;100.00;100573.44;7392863;19;20712;-43
2021/11/25 03:28:19;;;;;;;29.87;13.67;;;;;;;4.50;100.00;100574.41;7399183;19;20440;-44
2021/11/25 03:30:54;;;;;;;23.37;12.57;;;;;;;4.44;100.00;100574.91;7394383;19;20415;-44
2021/11/25 03:33:25;;;;;;;24.97;12.60;;;;;;;4.43;100.00;100574.81;7399237;19;20644;-45
2021/11/25 03:35:55;;;;;;;27.33;12.90;;;;;;;4.40;100.00;100578.03;7394630;19;20431;-43
2021/11/25 03:38:27;;;;;;;22.63;12.00;;;;;;;4.37;100.00;100570.19;7398525;19;20908;-44
2021/11/25 03:40:58;;;;;;;23.23;12.50;;;;;;;4.40;100.00;100570.38;7393967;19;20437;-43
2021/11/25 03:43:27;;;;;;;26.37;13.37;;;;;;;4.45;100.00;100569.00;7402473;19;20438;-45
2021/11/25 03:45:57;;;;;;;23.27;12.47;;;;;;;4.43;100.00;100562.94;7390736;19;20760;-45
2021/11/25 03:48:30;;;;;;;23.23;13.00;;;;;;;4.46;100.00;100562.22;7398310;19;20392;-42
2021/11/25 03:51:00;;;;;;;25.23;13.93;;;;;;;4.45;100.00;100563.91;7393125;19;20426;-45
2021/11/25 03:53:34;;;;;;;23.50;13.20;;;;;;;4.44;100.00;100557.03;7398238;19;20387;-45
2021/11/25 03:56:04;;;;;;;24.80;13.63;;;;;;;4.40;100.00;100557.59;7395342;19;20481;-44
2021/11/25 03:58:34;;;;;;;20.47;12.47;;;;;;;4.41;100.00;100564.47;7398015;19;20384;-44
2021/11/25 04:01:03;;;;;;;24.27;12.90;;;;;;;4.44;100.00;100556.13;7394448;19;20552;-45
2021/11/25 04:03:33;;;;;;;19.37;10.77;;;;;;;4.37;100.00;100549.75;7400767;19;20398;-45
2021/11/25 04:06:04;;;;;;;26.73;12.20;;;;;;;4.32;100.00;100546.91;7396993;19;20435;-48
2021/11/25 04:08:36;;;;;;;21.23;10.80;;;;;;;4.32;100.00;100536.69;7404970;19;20397;-45
2021/11/25 04:11:06;;;;;;;21.63;12.30;;;;;;;4.32;100.00;100541.78;7401016;19;20411;-45
2021/11/25 04:13:36;;;;;;;20.97;12.00;;;;;;;4.29;100.00;100545.81;7405846;19;20459;-43
2021/11/25 04:16:06;;;;;;;17.97;11.03;;;;;;;4.27;100.00;100540.63;7399818;19;20454;-44
2021/11/25 04:18:36;;;;;;;19.70;11.57;;;;;;;4.30;100.00;100539.91;7404412;19;20372;-43
2021/11/25 04:21:05;;;;;;;30.93;10.70;;;;;;;4.33;100.00;100537.56;7400138;19;20538;-44
2021/11/25 04:23:38;;;;;;;20.53;10.13;;;;;;;4.16;100.00;100529.72;7404623;19;20424;-44
2021/11/25 04:26:07;;;;;;;18.90;10.70;;;;;;;4.15;100.00;100527.94;7398423;19;20425;-44
2021/11/25 04:28:36;;;;;;;20.77;11.67;;;;;;;4.17;100.00;100525.50;7403688;19;20398;-48
2021/11/25 04:36:43;;;;;;;18.10;11.17;;;;;;;4.14;100.00;100522.72;7398008;19;20682;-44
2021/11/25 04:39:15;;;;;;;16.93;10.00;;;;;;;4.14;100.00;100518.53;7403334;19;20411;-46
2021/11/25 04:41:45;;;;;;;20.13;10.90;;;;;;;4.10;100.00;100514.00;7399449;19;20878;-44
2021/11/25 04:44:14;;;;;;;17.67;9.43;;;;;;;4.14;100.00;100505.75;7403306;19;20387;-43
2021/11/25 04:46:44;;;;;;;16.27;9.90;;;;;;;4.12;100.00;100507.34;7397779;19;20488;-44
2021/11/25 04:49:13;;;;;;;19.70;11.77;;;;;;;4.18;100.00;100512.84;7402879;19;20383;-44
2021/11/25 04:51:43;;;;;;;17.37;11.30;;;;;;;4.13;100.00;100511.66;7398568;19;20431;-48
2021/11/25 04:54:15;;;;;;;17.30;10.00;;;;;;;4.07;100.00;100503.59;7402793;19;20386;-42
2021/11/25 04:56:44;;;;;;;17.40;9.37;;;;;;;4.11;100.00;100499.56;7397171;19;20431;-46
2021/11/25 04:59:14;;;;;;;17.60;10.37;;;;;;;4.03;100.00;100486.31;7402462;19;20400;-46
2021/11/25 05:01:43;;;;;;;19.13;10.40;;;;;;;4.05;100.00;100485.63;7399062;19;20413;-42
2021/11/25 05:04:13;;;;;;;18.67;11.10;;;;;;;4.09;100.00;100480.72;7402532;19;20693;-43
2021/11/25 05:06:43;;;;;;;19.30;10.90;;;;;;;4.12;100.00;100486.91;7395088;19;20801;-44
2021/11/25 05:09:15;;;;;;;18.83;9.90;;;;;;;4.04;100.00;100488.06;7402435;19;20487;-47
2021/11/25 05:11:45;;;;;;;20.23;10.60;;;;;;;4.03;100.00;100482.09;7398859;19;20419;-44
2021/11/25 05:14:15;;;;;;;17.03;10.23;;;;;;;4.19;100.00;100473.72;7401886;19;20380;-42
2021/11/25 05:16:45;;;;;;;17.90;10.23;;;;;;;4.05;100.00;100475.41;7398803;19;20459;-46
2021/11/25 05:19:17;;;;;;;20.40;10.40;;;;;;;4.03;100.00;100476.09;7401981;19;20625;-44
2021/11/25 05:21:46;;;;;;;19.50;11.40;;;;;;;4.05;100.00;100469.41;7400329;19;20442;-42
2021/11/25 05:24:19;;;;;;;19.53;10.63;;;;;;;4.13;100.00;100457.13;7401793;19;20396;-42
2021/11/25 05:26:49;;;;;;;18.73;11.10;;;;;;;4.11;100.00;100458.72;7395923;19;20892;-45
2021/11/25 05:29:18;;;;;;;20.27;11.00;;;;;;;3.99;100.00;100458.84;7401327;19;20388;-48
2021/11/25 05:31:48;;;;;;;16.73;9.73;;;;;;;3.99;100.00;100459.69;7398159;19;20436;-46
2021/11/25 05:34:17;;;;;;;18.70;10.97;;;;;;;4.01;100.00;100458.13;7401438;19;20642;-45
2021/11/25 05:36:48;;;;;;;22.23;12.07;;;;;;;4.11;100.00;100451.91;7393901;19;20428;-46
2021/11/25 05:39:20;;;;;;;20.10;11.77;;;;;;;4.05;100.00;100448.97;7401074;19;20447;-44
2021/11/25 05:41:50;;;;;;;23.73;13.73;;;;;;;3.97;100.00;100457.81;7400543;19;20442;-43
2021/11/25 05:44:19;;;;;;;24.73;12.80;;;;;;;3.91;100.00;100455.78;7400927;19;20391;-45
2021/11/25 05:46:49;;;;;;;18.37;9.53;;;;;;;3.91;100.00;100451.53;7397509;19;20475;-45
2021/11/25 05:49:18;;;;;;;27.00;11.97;;;;;;;3.94;100.00;100450.00;7401492;19;20455;-45
2021/11/25 05:51:48;;;;;;;22.97;13.07;;;;;;;3.88;100.00;100448.81;7401415;19;20498;-48
2021/11/25 05:54:20;;;;;;;22.20;11.43;;;;;;;3.85;100.00;100446.03;7401697;19;20416;-46
2021/11/25 05:56:50;;;;;;;22.20;11.30;;;;;;;3.86;100.00;100441.84;7397920;19;20453;-44
2021/11/25 05:59:19;;;;;;;20.07;11.20;;;;;;;3.79;100.00;100443.09;7404271;19;20668;-43
2021/11/25 06:01:49;;;;;;;21.00;10.60;;;;;;;3.85;100.00;100443.50;7399365;19;20486;-46
2021/11/25 06:04:19;;;;;;;21.30;12.00;;;;;;;3.86;100.00;100427.41;7400282;19;20378;-47
2021/11/25 06:06:48;;;;;;;24.70;13.40;;;;;;;3.85;100.00;100424.75;7395039;19;20447;-44
2021/11/25 06:09:21;;;;;;;20.23;12.10;;;;;;;3.83;100.00;100424.66;7399760;19;20380;-43
2021/11/25 06:11:50;;;;;;;22.90;12.53;;;;;;;3.83;100.00;100429.75;7399963;19;20416;-43
2021/11/25 06:14:19;;;;;;;25.73;12.37;;;;;;;3.83;100.00;100423.75;7400192;19;20670;-43
2021/11/25 06:16:49;;;;;;;22.60;12.57;;;;;;;3.83;100.00;100417.00;7397565;19;20419;-41
2021/11/25 06:19:18;;;;;;;22.20;12.40;;;;;;;3.82;100.00;100415.25;7399621;19;20469;-48
2021/11/25 06:21:48;;;;;;;25.17;13.20;;;;;;;3.86;100.00;100409.56;7400365;19;20932;-49
2021/11/25 06:24:17;;;;;;;23.00;10.63;;;;;;;3.85;100.00;100415.41;7399930;19;20396;-48
2021/11/25 06:26:50;;;;;;;23.57;11.87;;;;;;;3.88;100.00;100414.72;7394613;19;20415;-47
2021/11/25 06:29:20;;;;;;;25.23;13.53;;;;;;;3.89;100.00;100411.38;7397448;19;20443;-41
2021/11/25 06:31:49;;;;;;;21.30;12.13;;;;;;;3.84;100.00;100411.09;7398538;19;20413;-41
2021/11/25 06:34:19;;;;;;;23.90;13.70;;;;;;;3.89;100.00;100411.38;7399437;19;20383;-44
2021/11/25 06:36:49;;;;;;;24.63;12.50;;;;;;;3.84;100.00;100408.53;7392745;19;20494;-46
2021/11/25 06:39:18;;;;;;;20.87;12.13;;;;;;;3.87;100.00;100398.56;7398948;19;20467;-48
2021/11/25 06:41:50;;;;;;;22.83;12.47;;;;;;;3.88;100.00;100397.75;7396021;19;21014;-44
2021/11/25 06:44:20;;;;;;;26.13;13.93;;;;;;;3.92;100.00;100392.06;7399182;19;20403;-43
2021/11/25 06:46:49;;;;;;;23.43;13.53;;;;;;;3.87;100.00;100393.44;7396416;19;20470;-43
2021/11/25 06:49:19;;;;;;;19.47;10.77;;;;;;;3.85;100.00;100395.00;7398400;19;20387;-42
2021/11/25 06:51:48;;;;;;;20.40;12.50;;;;;;;3.86;100.00;100386.59;7395458;19;20696;-42
2021/11/25 06:54:18;;;;;;;25.73;14.20;;;;;;;3.94;100.00;100388.72;7398817;19;20392;-43
2021/11/25 06:56:50;;;;;;;24.00;13.00;;;;;;;3.87;100.00;100388.34;7393533;19;20491;-44
2021/11/25 06:59:20;;;;;;;25.77;13.63;;;;;;;3.95;100.00;100380.28;7398576;19;20448;-43
2021/11/25 07:01:49;;;;;;;25.53;14.30;;;;;;;3.92;100.00;100384.41;7398110;19;20423;-43
2021/11/25 07:04:19;;;;;;;24.77;13.20;;;;;;;3.88;100.00;100374.78;7398411;19;20913;-44
2021/11/25 07:06:48;;;;;;;29.60;15.43;;;;;;;3.87;100.00;100378.13;7391001;19;20439;-43
2021/11/25 07:09:18;;;;;;;26.70;14.53;;;;;;;3.89;100.00;100384.19;7399961;19;20859;-45
2021/11/25 07:11:52;;;;;;;26.20;13.80;;;;;;;3.92;100.00;100370.75;7398239;19;20415;-41
2021/11/25 07:14:22;;;;;;;24.90;14.37;;;;;;;3.90;100.00;100377.44;7399273;19;20536;-46
2021/11/25 07:16:51;;;;;;;27.87;14.03;;;;;;;3.88;100.00;100369.69;7396162;19;20417;-42
2021/11/25 07:19:20;;;;;;;28.57;15.10;;;;;;;3.87;100.00;100357.72;7397948;19;20406;-44
2021/11/25 07:21:50;;;;;;;26.50;15.00;;;;;;;3.90;100.00;100354.47;7401320;19;20442;-42
2021/11/25 07:24:21;;;;;;;25.00;11.63;;;;;;;3.86;100.00;100349.94;7401938;19;20404;-42
2021/11/25 07:26:54;;;;;;;31.30;15.40;;;;;;;3.90;100.00;100345.13;7396050;19;20936;-43
2021/11/25 07:29:25;;;;;;;28.50;12.67;;;;;;;3.86;100.00;100350.84;7395942;19;20396;-47
2021/11/25 07:31:54;;;;;;;33.93;15.77;;;;;;;3.86;100.00;100350.84;7397136;19;20495;-45
2021/11/25 07:34:24;;;;;;;23.40;9.90;;;;;;;3.84;100.00;100336.22;7394974;19;20467;-48
2021/11/25 07:36:53;;;;;;;29.33;16.57;;;;;;;3.87;100.00;100337.28;7395632;19;20491;-45
2021/11/25 07:39:23;;;;;;;35.03;17.27;;;;;;;3.91;100.00;100341.78;7399987;19;20451;-43
2021/11/25 07:41:55;;;;;;;34.73;18.00;;;;;;;3.90;100.00;100336.59;7404424;19;20436;-44
2021/11/25 07:44:25;;;;;;;35.27;15.63;;;;;;;3.84;100.00;100341.31;7402330;19;20396;-42
2021/11/25 07:46:54;;;;;;;31.70;15.83;;;;;;;3.88;100.00;100328.84;7402327;19;20415;-47
2021/11/25 07:49:24;;;;;;;33.70;16.00;;;;;;;3.86;100.00;100320.22;7406109;19;20401;-43
2021/11/25 07:51:59;;;;;;;36.77;17.23;;;;;;;3.87;100.00;100324.53;7404160;19;20399;-43
2021/11/25 07:54:29;;;;;;;37.40;18.60;;;;;;;3.87;100.00;100314.31;7406024;19;20403;-44
2021/11/25 07:57:01;;;;;;;36.63;18.93;;;;;;;3.89;100.00;100317.84;7401582;19;20454;-43
2021/11/25 07:59:31;;;;;;;38.83;18.27;;;;;;;3.93;100.00;100301.03;7403945;19;21182;-46
2021/11/25 08:02:00;;;;;;;31.00;16.40;;;;;;;3.94;100.00;100309.59;7403802;19;20418;-43
2021/11/25 08:04:30;;;;;;;36.13;19.90;;;;;;;3.98;100.00;100302.19;7404653;19;20403;-47
2021/11/25 08:07:00;;;;;;;37.30;18.93;;;;;;;4.00;100.00;100302.31;7400874;19;20440;-47
2021/11/25 08:09:29;;;;;;;38.10;19.23;;;;;;;3.98;100.00;100299.66;7399140;19;20924;-42
2021/11/25 08:12:01;;;;;;;37.40;17.47;;;;;;;4.02;100.00;100293.06;7403469;19;20396;-43
2021/11/25 08:14:31;;;;;;;45.80;20.70;;;;;;;4.09;100.00;100295.19;7401236;19;20391;-42
2021/11/25 08:17:00;;;;;;;39.80;19.57;;;;;;;4.09;100.00;100296.88;7401326;19;20423;-41
2021/11/25 08:19:30;;;;;;;42.13;20.67;;;;;;;4.16;100.00;100289.66;7400508;19;20467;-44
2021/11/25 08:22:00;;;;;;;41.93;20.10;;;;;;;4.17;100.00;100271.00;7407946;19;20711;-42
2021/11/25 08:24:29;;;;;;;40.00;19.40;;;;;;;4.12;100.00;100285.19;7399374;19;20419;-43
2021/11/25 08:27:01;;;;;;;37.47;20.13;;;;;;;4.18;100.00;100284.66;7400909;19;20408;-45
2021/11/25 08:29:31;;;;;;;38.90;20.13;;;;;;;4.14;100.00;100282.69;7397372;19;20405;-46
2021/11/25 08:32:00;;;;;;;37.07;19.50;;;;;;;4.12;100.00;100274.97;7402988;19;20396;-43
2021/11/25 08:34:30;;;;;;;35.70;16.63;;;;;;;4.18;100.00;100269.34;7400413;19;20387;-44
2021/11/25 08:36:59;;;;;;;45.70;21.30;;;;;;;4.17;100.00;100277.78;7400453;19;20940;-41
2021/11/25 08:39:29;;;;;;;39.00;19.20;;;;;;;4.16;100.00;100273.47;7399706;19;20713;-48
2021/11/25 08:42:01;;;;;;;39.63;19.83;;;;;;;4.21;100.00;100266.09;7402705;19;20408;-43
2021/11/25 08:44:31;;;;;;;44.73;20.67;;;;;;;4.16;100.00;100269.22;7399921;19;20390;-42
2021/11/25 08:47:01;;;;;;;42.40;17.20;;;;;;;4.15;100.00;100271.72;7399823;19;20422;-45
2021/11/25 08:49:31;;;;;;;33.80;18.40;;;;;;;4.17;100.00;100258.22;7398154;19;20477;-42
2021/11/25 08:52:00;;;;;;;44.50;18.87;;;;;;;4.17;100.00;100259.91;7400496;19;20388;-43
2021/11/25 08:54:30;;;;;;;44.80;20.90;;;;;;;4.21;100.00;100255.88;7396445;19;20459;-43
2021/11/25 08:57:02;;;;;;;41.90;21.03;;;;;;;4.21;100.00;100258.41;7399899;19;20776;-43
2021/11/25 08:59:31;;;;;;;45.47;22.60;;;;;;;4.22;100.00;100258.53;7397248;19;20384;-43
2021/11/25 09:02:01;;;;;;;35.17;16.90;;;;;;;4.19;100.00;100249.00;7401756;19;20388;-44
2021/11/25 09:04:30;;;;;;;48.97;21.20;;;;;;;4.17;100.00;100242.91;7399249;19;20847;-45
2021/11/25 09:07:00;;;;;;;43.17;22.10;;;;;;;4.18;100.00;100249.78;7399753;19;20479;-48
2021/11/25 09:09:30;;;;;;;40.07;17.13;;;;;;;4.15;100.00;100256.41;7394023;19;20459;-46
2021/11/25 09:12:02;;;;;;;49.10;23.30;;;;;;;4.27;100.00;100251.13;7405496;19;20404;-47
2021/11/25 09:14:32;;;;;;;50.50;21.80;;;;;;;4.27;100.00;100251.13;7396931;19;20691;-47
2021/11/25 09:17:07;;;;;;;44.57;21.60;;;;;;;4.25;100.00;100247.59;7399753;19;20423;-49
2021/11/25 09:19:37;;;;;;;45.17;22.57;;;;;;;4.25;100.00;100247.59;7398673;19;20663;-51
2021/11/25 09:22:06;;;;;;;39.43;19.67;;;;;;;4.25;100.00;100239.94;7406174;19;20401;-47
2021/11/25 09:24:37;;;;;;;42.57;18.47;;;;;;;4.18;100.00;100237.03;7398826;19;20392;-45
2021/11/25 09:27:09;;;;;;;45.60;21.30;;;;;;;4.22;100.00;100244.84;7401451;19;20491;-44
2021/11/25 09:29:38;;;;;;;49.60;22.93;;;;;;;4.22;100.00;100237.19;7397564;19;20865;-48
2021/11/25 09:32:08;;;;;;;48.90;24.57;;;;;;;4.26;100.00;100234.91;7401221;19;20406;-52
2021/11/25 09:34:38;;;;;;;47.53;20.27;;;;;;;4.24;100.00;100225.38;7395271;19;20388;-52
2021/11/25 09:37:08;;;;;;;34.63;14.27;;;;;;;4.15;100.00;100229.16;7398801;19;20690;-48
2021/11/25 09:39:38;;;;;;;46.40;19.53;;;;;;;4.17;100.00;100225.03;7397927;19;20393;-44
2021/11/25 09:42:10;;;;;;;48.40;21.07;;;;;;;4.23;100.00;100215.97;7401012;19;20467;-49
2021/11/25 09:44:44;;;;;;;48.63;22.23;;;;;;;4.23;100.00;100219.41;7394586;19;20392;-49
2021/11/25 09:47:15;;;;;;;46.73;20.33;;;;;;;4.19;100.00;100218.34;7399618;19;20407;-52
2021/11/25 09:49:45;;;;;;;44.47;22.03;;;;;;;4.30;100.00;100210.41;7396457;19;20426;-51
2021/11/25 09:52:14;;;;;;;37.87;16.77;;;;;;;4.27;100.00;100218.81;7401458;19;20464;-43
2021/11/25 09:54:44;;;;;;;47.23;22.57;;;;;;;4.35;100.00;100208.16;7397285;19;21020;-45
2021/11/25 09:57:16;;;;;;;49.57;19.43;;;;;;;4.45;100.00;100211.31;7399451;19;20427;-45
2021/11/25 09:59:46;;;;;;;52.10;19.97;;;;;;;4.47;100.00;100208.88;7397983;19;20432;-45
2021/11/25 10:02:15;;;;;;;43.33;20.00;;;;;;;4.42;100.00;100208.56;7400847;19;20479;-45
2021/11/25 10:04:46;;;;;;;45.30;21.57;;;;;;;4.56;100.00;100203.41;7397027;19;20876;-44
2021/11/25 10:07:31;;;;;;;37.57;16.00;;;;;;;4.41;100.00;100203.41;7398344;19;20492;-41
2021/11/25 10:10:00;;;;;;;51.60;21.97;;;;;;;4.48;100.00;100189.28;7397463;19;20411;-44
2021/11/25 10:12:36;;;;;;;44.43;16.40;;;;;;;4.42;100.00;100189.84;7400230;19;20391;-43
2021/11/25 10:15:28;;;;;;;39.23;19.30;;;;;;;4.43;100.00;100187.38;7396049;19;20428;-43
2021/11/25 10:18:01;;;;;;;40.07;18.27;;;;;;;4.43;100.00;100179.72;7398396;19;20445;-46
2021/11/25 10:20:32;;;;;;;53.30;19.17;;;;;;;4.76;100.00;100165.31;7396541;19;20970;-40
2021/11/25 10:23:17;;;;;;;75.50;24.83;;;;;;;4.77;100.00;100165.38;7399851;19;20685;-40
2021/11/25 10:25:50;;;;;;;109.67;33.43;;;;;;;4.86;100.00;100165.00;7395343;19;20423;-47
2021/11/25 10:28:41;;;;;;;44.40;18.80;;;;;;;4.66;100.00;100169.91;7399850;19;20394;-44
2021/11/25 10:31:14;;;;;;;39.77;15.40;;;;;;;4.77;100.00;100157.72;7395886;19;20895;-46
2021/11/25 10:33:51;;;;;;;78.53;24.60;;;;;;;4.83;100.00;100136.75;7399421;19;20436;-46
2021/11/25 10:36:33;;;;;;;45.70;21.80;;;;;;;4.66;100.00;100149.44;7392504;19;20478;-45
2021/11/25 10:39:13;;;;;;;51.33;22.10;;;;;;;4.70;100.00;100136.06;7399088;19;20817;-44
2021/11/25 10:41:46;;;;;;;49.33;21.47;;;;;;;4.80;100.00;100132.34;7394166;19;20422;-42
2021/11/25 10:44:22;;;;;;;61.50;20.20;;;;;;;4.84;100.00;100129.16;7399257;19;20901;-45
2021/11/25 10:46:55;;;;;;;52.13;22.83;;;;;;;4.66;100.00;100123.91;7396917;19;20431;-44
2021/11/25 10:49:39;;;;;;;49.17;21.63;;;;;;;4.53;100.00;100121.44;7393143;19;20892;-46
2021/11/25 10:52:22;;;;;;;55.43;26.00;;;;;;;4.52;100.00;100114.59;7399097;19;20744;-48
2021/11/25 10:54:54;;;;;;;47.63;21.90;;;;;;;4.50;100.00;100122.16;7395261;19;20490;-46
2021/11/25 10:57:25;;;;;;;41.90;15.47;;;;;;;4.39;100.00;100119.00;7397165;19;20720;-47
2021/11/25 10:59:57;;;;;;;63.07;27.97;;;;;;;4.41;100.00;100108.88;7395141;19;20416;-46
2021/11/25 11:02:33;;;;;;;63.30;27.50;;;;;;;4.31;100.00;100104.94;7399088;19;20404;-46
2021/11/25 11:05:06;;;;;;;57.83;24.93;;;;;;;4.32;100.00;100104.13;7394433;19;20415;-45
2021/11/25 11:07:37;;;;;;;55.00;25.07;;;;;;;4.28;100.00;100100.53;7396211;19;20427;-43
2021/11/25 11:10:21;;;;;;;67.20;27.87;;;;;;;4.23;100.00;100095.94;7399579;19;20390;-44
2021/11/25 11:12:59;;;;;;;78.13;33.10;;;;;;;4.26;100.00;100089.31;7402604;19;20410;-49
2021/11/25 11:15:49;;;;;;;77.50;30.40;;;;;;;4.24;100.00;100077.25;7391122;19;20438;-44
2021/11/25 11:21:07;;;;;;;85.30;31.63;;;;;;;4.24;100.00;100073.03;7393044;19;20434;-44
2021/11/25 11:23:37;;;;;;;88.00;34.03;;;;;;;4.22;100.00;100074.66;7402346;19;20744;-45
2021/11/25 11:26:08;;;;;;;69.60;27.47;;;;;;;4.16;100.00;100069.19;7390866;19;20975;-46
2021/11/25 11:28:38;;;;;;;42.67;17.47;;;;;;;4.06;100.00;100060.13;7398331;19;20410;-45
2021/11/25 11:31:11;;;;;;;79.40;31.23;;;;;;;4.17;100.00;100051.38;7391781;19;20442;-46
2021/11/25 11:33:40;;;;;;;71.93;28.73;;;;;;;4.14;100.00;100050.31;7396924;19;20393;-47
2021/11/25 11:36:10;;;;;;;79.07;33.57;;;;;;;4.23;100.00;100045.75;7392568;19;20422;-46